Time;durP1;ratioP1;P1;durP2;ratioP2;P2;SDS_P1;SDS_P2;PMS_P1;PMS_P2;Temp;Humidity;BMP_temperature;BMP_pressure;BME280_temperature;BME280_humidity;BME280_pressure;Samples;Min_cycle;Max_cycle;Signal;HPM_P1;HPM_P2
2022/12/04 00:00:40;;;;;;;44.20;16.55;;;0.20;99.90;;;;;;5112951;28;20411;-75
2022/12/04 00:03:06;;;;;;;34.97;14.55;;;0.20;99.90;;;;;;5114305;28;20506;-75
2022/12/04 00:05:31;;;;;;;38.90;15.82;;;0.10;99.90;;;;;;5114259;28;20368;-75
2022/12/04 00:07:57;;;;;;;42.97;16.15;;;0.10;99.90;;;;;;5114399;28;20050;-75
2022/12/04 00:10:23;;;;;;;43.15;17.13;;;0.20;99.90;;;;;;5113078;28;20063;-75
2022/12/04 00:12:48;;;;;;;39.80;15.85;;;0.10;99.90;;;;;;5112958;28;20043;-75
2022/12/04 00:15:14;;;;;;;44.05;17.08;;;0.20;99.90;;;;;;5114114;28;20100;-75
2022/12/04 00:17:40;;;;;;;42.92;16.25;;;0.20;99.90;;;;;;5112817;28;20047;-75
2022/12/04 00:20:06;;;;;;;43.65;16.00;;;0.20;99.90;;;;;;5112610;28;20055;-75
2022/12/04 00:22:32;;;;;;;46.80;17.23;;;0.20;99.90;;;;;;5114169;28;20059;-75
2022/12/04 00:24:58;;;;;;;41.03;16.58;;;0.20;99.90;;;;;;5112662;28;20121;-75
2022/12/04 00:27:23;;;;;;;44.72;17.48;;;0.20;99.90;;;;;;5112871;28;20052;-75
2022/12/04 00:29:49;;;;;;;40.85;15.55;;;0.20;99.90;;;;;;5112634;28;20050;-75
2022/12/04 00:32:15;;;;;;;43.15;17.75;;;0.30;99.90;;;;;;5114329;28;20053;-75
2022/12/04 00:34:41;;;;;;;43.13;16.23;;;0.30;99.90;;;;;;5112770;28;20071;-75
2022/12/04 00:37:06;;;;;;;44.78;18.13;;;0.30;99.90;;;;;;5112790;28;20047;-75
2022/12/04 00:39:32;;;;;;;43.22;17.38;;;0.30;99.90;;;;;;5112800;28;20044;-75
2022/12/04 00:41:57;;;;;;;42.95;15.63;;;0.40;99.90;;;;;;5113883;28;20051;-75
2022/12/04 00:44:23;;;;;;;45.13;16.80;;;0.40;99.90;;;;;;5112615;28;20047;-75
2022/12/04 00:46:49;;;;;;;41.15;16.05;;;0.50;99.90;;;;;;5112590;28;20047;-75
2022/12/04 00:49:14;;;;;;;40.88;17.10;;;0.50;99.90;;;;;;5112863;28;20072;-75
2022/12/04 00:51:40;;;;;;;42.42;17.38;;;0.60;99.90;;;;;;5112849;28;20073;-75
2022/12/04 00:54:06;;;;;;;39.67;16.38;;;0.60;99.90;;;;;;5112922;28;20101;-75
2022/12/04 00:56:31;;;;;;;45.90;17.83;;;0.60;99.90;;;;;;5113883;28;20115;-75
2022/12/04 00:58:58;;;;;;;44.17;16.98;;;0.70;99.90;;;;;;5115438;28;20497;-75
2022/12/04 01:01:25;;;;;;;46.05;17.80;;;0.70;99.90;;;;;;5116637;28;20559;-75
2022/12/04 01:03:50;;;;;;;43.85;17.05;;;0.70;99.90;;;;;;5117882;28;20031;-75
2022/12/04 01:06:22;;;;;;;42.75;15.35;;;0.70;99.90;;;;;;5117810;28;20143;-75
2022/12/04 01:08:49;;;;;;;39.58;15.68;;;0.80;99.90;;;;;;5116879;28;20494;-75
2022/12/04 01:11:17;;;;;;;42.90;17.33;;;0.80;99.90;;;;;;5116408;28;20039;-75
2022/12/04 01:13:44;;;;;;;40.70;16.50;;;0.80;99.90;;;;;;5116328;28;20040;-75
2022/12/04 01:16:23;;;;;;;39.13;17.33;;;0.80;99.90;;;;;;5116512;28;20122;-75
2022/12/04 01:18:49;;;;;;;44.78;16.65;;;0.80;99.90;;;;;;5117660;28;20051;-75
2022/12/04 01:21:16;;;;;;;40.65;16.45;;;0.80;99.90;;;;;;5115779;28;20051;-75
2022/12/04 01:23:42;;;;;;;38.58;16.17;;;0.90;99.90;;;;;;5116443;28;20551;-75
2022/12/04 01:26:08;;;;;;;39.10;14.95;;;0.80;99.90;;;;;;5116052;28;20482;-75
2022/12/04 01:28:35;;;;;;;38.88;16.25;;;0.90;99.90;;;;;;5117435;27;20093;-75
2022/12/04 01:31:07;;;;;;;43.25;16.52;;;0.90;99.90;;;;;;5116497;28;20072;-75
2022/12/04 01:33:34;;;;;;;43.97;16.17;;;1.00;99.90;;;;;;5117312;28;20081;-75
2022/12/04 01:36:02;;;;;;;39.45;16.80;;;1.00;99.90;;;;;;5116228;28;20080;-75
2022/12/04 01:38:28;;;;;;;38.00;15.90;;;0.90;99.90;;;;;;5116011;28;20122;-75
2022/12/04 01:40:55;;;;;;;41.33;16.75;;;1.00;99.90;;;;;;5117075;28;20039;-75
2022/12/04 01:43:21;;;;;;;36.70;16.20;;;1.00;99.90;;;;;;5115761;28;20058;-75
2022/12/04 01:45:49;;;;;;;43.15;16.13;;;1.00;99.90;;;;;;5115990;28;20364;-75
2022/12/04 01:48:18;;;;;;;40.63;16.90;;;0.90;99.90;;;;;;5116018;28;20150;-75
2022/12/04 01:50:44;;;;;;;44.30;16.33;;;1.00;99.90;;;;;;5115742;28;20118;-75
2022/12/04 01:53:11;;;;;;;39.63;16.15;;;1.10;99.90;;;;;;5115522;28;20101;-75
2022/12/04 01:55:37;;;;;;;39.15;16.90;;;1.00;99.90;;;;;;5115562;28;20051;-75
2022/12/04 01:58:05;;;;;;;46.85;17.13;;;1.00;99.90;;;;;;5115532;28;20047;-75
2022/12/04 02:00:30;;;;;;;41.08;15.75;;;1.00;99.90;;;;;;5115794;28;20043;-75
2022/12/04 02:02:57;;;;;;;39.03;17.10;;;1.00;99.90;;;;;;5116512;28;20429;-75
2022/12/04 02:05:23;;;;;;;42.95;16.83;;;1.00;99.90;;;;;;5116637;28;20368;-75
2022/12/04 02:07:52;;;;;;;42.03;17.40;;;1.00;99.90;;;;;;5115419;28;20090;-75
2022/12/04 02:10:23;;;;;;;44.75;17.15;;;1.00;99.90;;;;;;5114630;28;20134;-75
2022/12/04 02:13:19;;;;;;;44.65;15.65;;;1.00;99.90;;;;;;5115506;28;20055;-75
2022/12/04 02:15:50;;;;;;;40.45;17.67;;;1.10;99.90;;;;;;5116526;28;20035;-75
2022/12/04 02:18:24;;;;;;;42.95;16.85;;;1.10;99.90;;;;;;5116489;28;20039;-75
2022/12/04 02:21:04;;;;;;;44.03;17.77;;;1.00;99.90;;;;;;5114831;28;20056;-74
2022/12/04 02:23:58;;;;;;;42.38;17.83;;;1.00;99.90;;;;;;5115036;28;20074;-75
2022/12/04 02:27:08;;;;;;;42.47;15.52;;;1.00;99.90;;;;;;5116936;28;20048;-75
2022/12/04 02:29:45;;;;;;;43.63;15.88;;;1.00;99.90;;;;;;5033571;28;20237;-74
2022/12/04 02:32:53;;;;;;;46.10;16.05;;;1.00;99.90;;;;;;5101573;28;20071;-75
2022/12/04 02:35:21;;;;;;;40.63;15.57;;;0.90;99.90;;;;;;5114795;28;20062;-74
2022/12/04 02:37:53;;;;;;;40.40;16.52;;;0.90;99.90;;;;;;5114738;28;20047;-75
2022/12/04 02:40:25;;;;;;;37.25;15.10;;;0.90;99.90;;;;;;5115055;28;20056;-75
2022/12/04 02:42:58;;;;;;;41.35;15.95;;;0.90;99.90;;;;;;5115897;28;20050;-75
2022/12/04 02:45:30;;;;;;;41.03;15.20;;;0.80;99.90;;;;;;5114848;28;20089;-75
2022/12/04 02:47:57;;;;;;;45.30;16.35;;;0.90;99.90;;;;;;5116105;28;20054;-75
2022/12/04 02:50:24;;;;;;;37.17;16.38;;;0.80;99.90;;;;;;5114520;28;20101;-75
2022/12/04 02:52:56;;;;;;;42.42;16.38;;;0.80;99.90;;;;;;5114492;28;20417;-75
2022/12/04 02:55:29;;;;;;;42.75;16.55;;;0.70;99.90;;;;;;5114486;28;20077;-75
2022/12/04 02:58:01;;;;;;;41.13;15.35;;;0.80;99.90;;;;;;5114645;28;20043;-75
2022/12/04 03:00:29;;;;;;;41.00;15.82;;;0.80;99.90;;;;;;5114663;28;20054;-75
2022/12/04 03:03:02;;;;;;;40.92;15.35;;;0.90;99.90;;;;;;5115422;28;20046;-75
2022/12/04 03:05:49;;;;;;;37.45;15.60;;;0.80;99.90;;;;;;5114334;28;20055;-75
2022/12/04 03:08:20;;;;;;;41.45;17.08;;;0.70;99.90;;;;;;5114124;28;20048;-75
2022/12/04 03:10:52;;;;;;;40.80;15.32;;;0.70;99.90;;;;;;5114390;28;20096;-75
2022/12/04 03:13:24;;;;;;;45.55;16.42;;;0.80;99.90;;;;;;5114684;28;20509;-75
2022/12/04 03:16:02;;;;;;;46.38;16.50;;;0.90;99.90;;;;;;5114063;28;20047;-75
2022/12/04 03:18:35;;;;;;;44.47;17.80;;;0.80;99.90;;;;;;5113913;28;20066;-75
2022/12/04 03:21:05;;;;;;;42.90;15.68;;;0.80;99.90;;;;;;5113206;28;20612;-75
2022/12/04 03:23:56;;;;;;;36.97;15.60;;;0.80;99.90;;;;;;5113553;28;20512;-75
2022/12/04 03:26:27;;;;;;;44.58;17.38;;;0.90;99.90;;;;;;5113250;28;20057;-75
2022/12/04 03:29:11;;;;;;;40.63;15.98;;;0.90;99.90;;;;;;5115104;28;20048;-75
2022/12/04 03:31:41;;;;;;;44.92;18.27;;;0.90;99.90;;;;;;5113972;28;20048;-75
2022/12/04 03:34:08;;;;;;;46.47;18.13;;;0.90;99.90;;;;;;5113996;28;20521;-75
2022/12/04 03:36:47;;;;;;;49.10;18.85;;;0.90;99.90;;;;;;5113953;28;20127;-75
2022/12/04 03:39:25;;;;;;;45.17;17.38;;;0.90;99.90;;;;;;5113449;28;20059;-75
2022/12/04 03:42:17;;;;;;;44.58;18.77;;;0.90;99.90;;;;;;5113625;28;20119;-75
2022/12/04 03:44:54;;;;;;;45.83;17.27;;;0.80;99.90;;;;;;5114804;28;20124;-75
2022/12/04 03:47:29;;;;;;;45.47;19.08;;;0.80;99.90;;;;;;5113424;28;20118;-75
2022/12/04 03:50:14;;;;;;;49.28;18.73;;;0.90;99.90;;;;;;5113306;28;20078;-75
2022/12/04 03:53:00;;;;;;;46.45;16.92;;;0.80;99.90;;;;;;5114849;28;20050;-75
2022/12/04 03:55:34;;;;;;;49.08;18.42;;;0.80;99.90;;;;;;5113613;28;20061;-75
2022/12/04 03:58:05;;;;;;;51.28;19.90;;;0.80;99.90;;;;;;5114579;28;20036;-75
2022/12/04 04:00:33;;;;;;;48.97;19.38;;;0.80;99.90;;;;;;5113701;28;20065;-75
2022/12/04 04:03:07;;;;;;;55.28;21.45;;;0.80;99.90;;;;;;5114463;28;20086;-75
2022/12/04 04:05:35;;;;;;;52.33;20.67;;;0.70;99.90;;;;;;5113445;28;20554;-75
2022/12/04 04:10:52;;;;;;;51.33;19.83;;;0.70;99.90;;;;;;5112899;28;20482;-75
2022/12/04 04:24:36;;;;;;;49.47;20.73;;;0.80;99.90;;;;;;5112922;28;20060;-75
2022/12/04 04:27:02;;;;;;;50.33;18.13;;;0.80;99.90;;;;;;5112878;28;20122;-75
2022/12/04 04:29:29;;;;;;;45.63;19.83;;;0.80;99.90;;;;;;5112712;28;20376;-75
2022/12/04 04:32:16;;;;;;;56.13;20.83;;;0.70;99.90;;;;;;5112734;28;20126;-75
2022/12/04 04:34:47;;;;;;;50.10;19.38;;;0.80;99.90;;;;;;5112782;28;20122;-75
2022/12/04 04:37:31;;;;;;;52.33;21.13;;;0.70;99.90;;;;;;5114021;28;20067;-75
2022/12/04 04:40:08;;;;;;;53.60;19.23;;;0.70;99.90;;;;;;5112981;28;20043;-75
2022/12/04 04:43:06;;;;;;;50.20;18.65;;;0.60;99.90;;;;;;5112627;28;20073;-75
2022/12/04 04:45:50;;;;;;;61.75;22.63;;;0.70;99.90;;;;;;5114061;28;20118;-75
2022/12/04 04:48:25;;;;;;;54.67;20.48;;;0.70;99.90;;;;;;5112934;28;20069;-75
2022/12/04 04:50:52;;;;;;;53.85;22.02;;;0.70;99.90;;;;;;5112633;28;20043;-75
2022/12/04 04:53:22;;;;;;;55.95;21.38;;;0.60;99.90;;;;;;5112597;28;20047;-75
2022/12/04 04:55:48;;;;;;;58.42;21.13;;;0.60;99.90;;;;;;5112972;28;20044;-75
2022/12/04 04:58:19;;;;;;;56.55;22.20;;;0.50;99.90;;;;;;5112922;28;20134;-75
2022/12/04 05:01:15;;;;;;;56.47;22.20;;;0.60;99.90;;;;;;5113900;28;20031;-75
2022/12/04 05:03:44;;;;;;;52.50;20.85;;;0.60;99.90;;;;;;5097321;28;20100;-75
2022/12/04 05:06:09;;;;;;;53.42;20.42;;;0.70;99.90;;;;;;5112502;28;20461;-75
2022/12/04 05:08:36;;;;;;;60.38;23.63;;;0.70;99.90;;;;;;5113750;28;20555;-75
2022/12/04 05:11:02;;;;;;;59.28;24.10;;;0.60;99.90;;;;;;5112337;28;20138;-75
2022/12/04 05:13:29;;;;;;;62.65;24.15;;;0.60;99.90;;;;;;5112348;28;20044;-75
2022/12/04 05:15:59;;;;;;;57.17;21.88;;;0.60;99.90;;;;;;5112657;28;20048;-75
2022/12/04 05:18:25;;;;;;;54.40;24.10;;;0.60;99.90;;;;;;5112697;28;20051;-75
2022/12/04 05:20:51;;;;;;;56.72;22.90;;;0.60;99.90;;;;;;5112088;28;20051;-75
2022/12/04 05:23:17;;;;;;;55.38;23.25;;;0.60;99.90;;;;;;5112625;28;20051;-75
2022/12/04 05:25:43;;;;;;;54.15;21.95;;;0.60;99.90;;;;;;5112241;28;20047;-75
2022/12/04 05:28:08;;;;;;;64.25;25.55;;;0.60;99.90;;;;;;5112526;28;20055;-75
2022/12/04 05:30:34;;;;;;;64.57;24.88;;;0.60;99.90;;;;;;5113626;28;20531;-75
2022/12/04 05:32:59;;;;;;;54.33;21.90;;;0.60;99.90;;;;;;5112317;28;20051;-75
2022/12/04 05:35:25;;;;;;;58.08;22.77;;;0.60;99.90;;;;;;5112505;28;20052;-75
2022/12/04 05:37:51;;;;;;;59.83;25.70;;;0.60;99.90;;;;;;5113483;28;20036;-75
2022/12/04 05:40:16;;;;;;;58.10;22.58;;;0.60;99.90;;;;;;5112079;28;20077;-75
2022/12/04 05:42:42;;;;;;;52.17;21.70;;;0.60;99.90;;;;;;5112014;28;20479;-75
2022/12/04 05:45:08;;;;;;;57.85;23.80;;;0.60;99.90;;;;;;5113237;28;20122;-75
2022/12/04 05:47:41;;;;;;;61.58;24.35;;;0.60;99.90;;;;;;5115812;28;20047;-75
2022/12/04 05:50:09;;;;;;;57.08;23.10;;;0.60;99.90;;;;;;5115910;28;20071;-75
2022/12/04 05:52:34;;;;;;;54.97;21.98;;;0.60;99.90;;;;;;5116232;28;20391;-75
2022/12/04 05:55:00;;;;;;;57.00;23.42;;;0.60;99.90;;;;;;5115543;28;20482;-75
2022/12/04 05:57:26;;;;;;;57.55;22.23;;;0.60;99.90;;;;;;5117181;28;20127;-75
2022/12/04 05:59:52;;;;;;;59.83;24.20;;;0.70;99.90;;;;;;5115537;28;20062;-75
2022/12/04 06:02:17;;;;;;;63.88;23.73;;;0.70;99.90;;;;;;5115475;28;20075;-75
2022/12/04 06:04:43;;;;;;;63.55;22.92;;;0.70;99.90;;;;;;5115479;28;20044;-75
2022/12/04 06:07:09;;;;;;;57.55;22.05;;;0.70;99.90;;;;;;5115436;28;20051;-75
2022/12/04 06:09:36;;;;;;;61.42;24.40;;;0.70;99.90;;;;;;5115247;28;20127;-75
2022/12/04 06:12:02;;;;;;;55.55;24.42;;;0.70;99.90;;;;;;5116704;28;20052;-75
2022/12/04 06:14:28;;;;;;;62.10;23.85;;;0.70;99.90;;;;;;5115298;28;20042;-75
2022/12/04 06:16:53;;;;;;;59.92;24.25;;;0.80;99.90;;;;;;5115373;28;20062;-75
2022/12/04 06:19:21;;;;;;;58.95;24.17;;;0.70;99.90;;;;;;5115224;28;20040;-75
2022/12/04 06:21:49;;;;;;;56.53;23.40;;;0.70;99.90;;;;;;5114834;28;20051;-75
2022/12/04 06:24:21;;;;;;;62.17;23.67;;;0.70;99.90;;;;;;5116183;28;20487;-75
2022/12/04 06:26:48;;;;;;;64.53;26.30;;;0.70;99.90;;;;;;5115278;28;20104;-75
2022/12/04 06:29:14;;;;;;;59.92;23.27;;;0.70;99.90;;;;;;5114855;28;20433;-75
2022/12/04 06:31:40;;;;;;;69.05;25.05;;;0.70;99.90;;;;;;5114971;28;20390;-75
2022/12/04 06:34:07;;;;;;;67.00;23.90;;;0.70;99.90;;;;;;5116158;28;20039;-75
2022/12/04 06:36:34;;;;;;;63.13;23.83;;;0.80;99.90;;;;;;5115989;28;20067;-75
2022/12/04 06:39:00;;;;;;;66.82;25.63;;;0.80;99.90;;;;;;5114701;28;20126;-75
2022/12/04 06:41:27;;;;;;;60.22;22.77;;;0.70;99.90;;;;;;5115822;28;20127;-75
2022/12/04 06:43:54;;;;;;;63.10;24.00;;;0.70;99.90;;;;;;5114944;28;20047;-75
2022/12/04 06:46:22;;;;;;;63.38;23.83;;;0.80;99.90;;;;;;5114489;28;20122;-75
2022/12/04 06:48:49;;;;;;;61.85;22.45;;;0.80;99.90;;;;;;5115912;28;20035;-75
2022/12/04 06:51:18;;;;;;;52.55;21.95;;;0.90;99.90;;;;;;5114414;28;20396;-75
2022/12/04 06:53:44;;;;;;;53.30;21.65;;;0.90;99.90;;;;;;5114447;28;20055;-75
2022/12/04 06:56:16;;;;;;;55.47;22.80;;;0.90;99.90;;;;;;5114423;28;20061;-75
2022/12/04 06:58:46;;;;;;;55.92;22.88;;;0.90;99.90;;;;;;5114525;28;20047;-75
2022/12/04 07:01:16;;;;;;;55.70;22.13;;;0.90;99.90;;;;;;5115540;28;20092;-75
2022/12/04 07:03:43;;;;;;;59.15;24.35;;;0.90;99.90;;;;;;5115648;28;20043;-75
2022/12/04 07:06:19;;;;;;;56.20;23.65;;;1.00;99.90;;;;;;5114209;28;20476;-75
2022/12/04 07:08:47;;;;;;;55.47;23.38;;;1.00;99.90;;;;;;5114356;28;20379;-75
2022/12/04 07:11:14;;;;;;;52.40;21.13;;;1.00;99.90;;;;;;5114228;28;20085;-75
2022/12/04 07:13:40;;;;;;;51.38;22.58;;;1.00;99.90;;;;;;5115334;28;20051;-75
2022/12/04 07:16:07;;;;;;;52.35;20.50;;;1.10;99.90;;;;;;5114211;28;20073;-75
2022/12/04 07:18:34;;;;;;;47.90;17.98;;;1.10;99.90;;;;;;5115190;28;20491;-75
2022/12/04 07:21:07;;;;;;;51.88;21.27;;;1.20;99.90;;;;;;5114936;28;20560;-75
2022/12/04 07:23:33;;;;;;;52.13;20.60;;;1.20;99.90;;;;;;5113996;28;20100;-75
2022/12/04 07:26:08;;;;;;;48.08;20.02;;;1.20;99.90;;;;;;5115141;28;20039;-75
2022/12/04 07:28:35;;;;;;;50.80;22.00;;;1.30;99.90;;;;;;5113727;28;20062;-75
2022/12/04 07:31:11;;;;;;;46.53;19.65;;;1.30;99.90;;;;;;5115132;28;20039;-75
2022/12/04 07:33:37;;;;;;;54.55;20.88;;;1.30;99.90;;;;;;5114051;28;20048;-75
2022/12/04 07:36:05;;;;;;;52.65;22.42;;;1.30;99.90;;;;;;5113704;28;20044;-75
2022/12/04 07:38:36;;;;;;;50.75;21.33;;;1.40;99.90;;;;;;5114963;28;20046;-75
2022/12/04 07:41:03;;;;;;;50.28;20.35;;;1.40;99.90;;;;;;5114670;28;20047;-75
2022/12/04 07:43:30;;;;;;;53.92;19.88;;;1.50;99.90;;;;;;5113456;28;20410;-75
2022/12/04 07:46:07;;;;;;;51.03;20.85;;;1.50;99.90;;;;;;5113761;28;20039;-75
2022/12/04 07:48:33;;;;;;;51.15;20.38;;;1.60;99.90;;;;;;5113483;28;20475;-75
2022/12/04 07:51:07;;;;;;;54.92;22.40;;;1.60;99.90;;;;;;5113132;28;20039;-75
2022/12/04 07:53:34;;;;;;;45.00;19.73;;;1.60;99.90;;;;;;5113008;28;20051;-75
2022/12/04 07:56:01;;;;;;;55.88;21.55;;;1.70;99.90;;;;;;5114290;28;20043;-75
2022/12/04 07:58:26;;;;;;;54.83;24.08;;;1.70;99.90;;;;;;5112721;28;20044;-75
2022/12/04 08:00:52;;;;;;;50.20;19.35;;;1.60;99.90;;;;;;5114041;28;20052;-75
2022/12/04 08:03:17;;;;;;;48.10;21.65;;;1.70;99.90;;;;;;5114053;28;20387;-75
2022/12/04 08:05:43;;;;;;;56.40;21.25;;;1.70;99.90;;;;;;5112997;28;20041;-74
2022/12/04 08:08:09;;;;;;;56.75;19.20;;;1.80;99.90;;;;;;5111219;28;20044;-75
2022/12/04 08:10:34;;;;;;;48.63;18.90;;;1.80;99.90;;;;;;5112631;28;20075;-75
2022/12/04 08:13:00;;;;;;;47.22;16.20;;;1.80;99.90;;;;;;5113201;28;20157;-75
2022/12/04 08:15:25;;;;;;;44.28;19.60;;;1.80;99.90;;;;;;5113081;28;20184;-75
2022/12/04 08:17:51;;;;;;;47.40;21.17;;;1.80;99.90;;;;;;5113021;28;20093;-75
2022/12/04 08:20:17;;;;;;;54.05;21.38;;;1.90;99.90;;;;;;5112735;28;20541;-75
2022/12/04 08:22:42;;;;;;;45.63;18.90;;;1.90;99.90;;;;;;5112782;28;20040;-75
2022/12/04 08:25:08;;;;;;;41.28;18.25;;;1.90;99.90;;;;;;5112375;28;20395;-74
2022/12/04 08:27:34;;;;;;;44.15;18.02;;;1.90;99.90;;;;;;5114087;28;20047;-75
2022/12/04 08:30:00;;;;;;;46.05;18.77;;;2.00;99.90;;;;;;5114161;28;20062;-75
2022/12/04 08:32:26;;;;;;;49.22;19.85;;;2.00;99.90;;;;;;5113867;28;20487;-75
2022/12/04 08:34:51;;;;;;;60.35;18.52;;;2.00;99.90;;;;;;5114001;28;20042;-75
2022/12/04 08:37:17;;;;;;;46.95;18.27;;;2.00;99.90;;;;;;5114037;28;20049;-75
2022/12/04 08:39:43;;;;;;;49.75;20.20;;;2.10;99.90;;;;;;5114072;28;20046;-75
2022/12/04 08:42:08;;;;;;;45.65;19.00;;;2.10;99.90;;;;;;5113814;28;20051;-75
2022/12/04 08:44:34;;;;;;;48.80;20.48;;;2.10;99.90;;;;;;5112442;28;20044;-75
2022/12/04 08:46:59;;;;;;;45.67;18.88;;;2.10;99.90;;;;;;5112541;28;20047;-75
2022/12/04 08:49:25;;;;;;;45.63;18.38;;;2.10;99.90;;;;;;5113639;28;20115;-75
2022/12/04 08:51:50;;;;;;;45.33;19.67;;;2.10;99.90;;;;;;5113716;28;20453;-75
2022/12/04 08:54:16;;;;;;;49.25;20.33;;;2.10;99.90;;;;;;5112377;28;20479;-75
2022/12/04 08:56:43;;;;;;;43.78;18.45;;;2.10;99.90;;;;;;5113729;28;20051;-75
2022/12/04 08:59:12;;;;;;;42.67;18.10;;;2.20;99.90;;;;;;5112398;28;20514;-75
2022/12/04 09:01:38;;;;;;;42.47;18.35;;;2.10;99.90;;;;;;5113544;28;20039;-75
2022/12/04 09:04:03;;;;;;;47.88;19.52;;;2.10;99.90;;;;;;5112591;28;20502;-75
2022/12/04 09:06:29;;;;;;;41.85;17.48;;;2.10;99.90;;;;;;5105371;28;20051;-75
2022/12/04 09:08:56;;;;;;;38.53;17.50;;;2.20;99.90;;;;;;5097621;28;20044;-75
2022/12/04 09:11:24;;;;;;;41.47;18.00;;;2.20;99.90;;;;;;5093209;28;20036;-75
2022/12/04 09:13:50;;;;;;;36.00;17.42;;;2.20;99.90;;;;;;5091675;28;20048;-75
2022/12/04 09:16:19;;;;;;;42.58;18.85;;;2.20;99.90;;;;;;5091865;28;20036;-75
2022/12/04 09:18:45;;;;;;;43.38;19.15;;;2.20;99.90;;;;;;5091849;28;20094;-75
2022/12/04 09:21:13;;;;;;;44.10;18.38;;;2.20;99.90;;;;;;5095481;28;20487;-75
2022/12/04 09:23:39;;;;;;;41.17;18.55;;;2.20;99.90;;;;;;5096848;28;20040;-75
2022/12/04 09:26:15;;;;;;;41.95;17.60;;;2.20;99.90;;;;;;5095453;28;20089;-75
2022/12/04 09:28:40;;;;;;;42.33;18.27;;;2.30;99.90;;;;;;5095711;28;20515;-75
2022/12/04 09:31:06;;;;;;;42.67;18.00;;;2.20;99.90;;;;;;5095295;28;20097;-75
2022/12/04 09:33:32;;;;;;;38.80;15.70;;;2.20;99.90;;;;;;5095256;28;20123;-75
2022/12/04 09:35:59;;;;;;;37.80;17.77;;;2.20;99.90;;;;;;5096799;28;20036;-75
2022/12/04 09:38:26;;;;;;;34.70;15.65;;;2.30;99.90;;;;;;5095129;28;20040;-75
2022/12/04 09:41:03;;;;;;;41.97;18.13;;;2.30;99.90;;;;;;5096628;28;20110;-74
2022/12/04 09:43:55;;;;;;;36.65;16.17;;;2.30;99.90;;;;;;5094989;28;20139;-75
2022/12/04 09:46:30;;;;;;;38.65;17.67;;;2.40;99.90;;;;;;5095338;28;20052;-75
2022/12/04 09:48:58;;;;;;;43.20;17.35;;;2.30;99.90;;;;;;5096320;28;20762;-75
2022/12/04 09:51:25;;;;;;;41.67;16.98;;;2.30;99.90;;;;;;5095172;28;20395;-75
2022/12/04 09:54:15;;;;;;;38.38;18.55;;;2.40;99.90;;;;;;5096153;28;20044;-75
2022/12/04 09:56:45;;;;;;;32.33;13.90;;;2.40;99.90;;;;;;5096218;28;20040;-75
2022/12/04 09:59:16;;;;;;;36.97;16.38;;;2.40;99.90;;;;;;5096285;28;20068;-75
2022/12/04 10:01:50;;;;;;;34.10;17.42;;;2.40;99.90;;;;;;5094954;28;20515;-75
2022/12/04 10:04:16;;;;;;;27.13;13.05;;;2.50;99.90;;;;;;5094687;28;20052;-75
2022/12/04 10:06:54;;;;;;;31.08;14.38;;;2.50;99.90;;;;;;5095840;28;20476;-75
2022/12/04 10:09:31;;;;;;;32.92;14.07;;;2.50;99.90;;;;;;5096117;28;20063;-75
2022/12/04 10:12:38;;;;;;;32.30;14.93;;;2.60;99.90;;;;;;5094979;28;20528;-75
2022/12/04 10:15:10;;;;;;;37.30;17.23;;;2.60;99.90;;;;;;5094689;28;20044;-75
2022/12/04 10:17:59;;;;;;;38.55;17.67;;;2.60;99.90;;;;;;5094543;28;20044;-75
2022/12/04 10:20:50;;;;;;;40.22;17.23;;;2.60;99.90;;;;;;5094387;28;20052;-75
2022/12/04 10:23:53;;;;;;;39.35;17.27;;;2.50;99.90;;;;;;5094204;28;20079;-76
2022/12/04 10:26:26;;;;;;;37.90;17.55;;;2.50;99.90;;;;;;5094275;28;20138;-75
2022/12/04 10:28:57;;;;;;;39.70;17.90;;;2.50;99.90;;;;;;5094491;28;20430;-75
2022/12/04 10:31:25;;;;;;;38.88;16.70;;;2.60;99.90;;;;;;5105576;28;20044;-76
2022/12/04 10:34:24;;;;;;;37.72;18.13;;;2.60;99.90;;;;;;5100553;28;20052;-75
2022/12/04 10:36:53;;;;;;;35.65;15.85;;;2.50;99.90;;;;;;5094001;28;20060;-75
2022/12/04 10:39:29;;;;;;;34.58;15.25;;;2.60;99.90;;;;;;5095544;28;20119;-75
2022/12/04 10:42:25;;;;;;;32.97;14.63;;;2.60;99.90;;;;;;5094027;28;20044;-75
2022/12/04 10:44:52;;;;;;;35.58;16.30;;;2.60;99.90;;;;;;5093911;28;20467;-75
2022/12/04 10:47:18;;;;;;;35.25;16.20;;;2.70;99.90;;;;;;5095377;28;20043;-75
2022/12/04 10:49:43;;;;;;;30.95;16.17;;;2.70;99.90;;;;;;5095082;28;20047;-75
2022/12/04 10:52:11;;;;;;;32.30;15.93;;;2.60;99.90;;;;;;5128082;27;20055;-75
2022/12/04 10:54:47;;;;;;;33.63;15.43;;;2.60;99.90;;;;;;5097034;28;20388;-75
2022/12/04 10:57:13;;;;;;;31.35;15.02;;;2.60;99.90;;;;;;5114334;28;20092;-75
2022/12/04 10:59:52;;;;;;;33.22;15.32;;;2.60;99.90;;;;;;5114041;28;20050;-75
2022/12/04 11:02:30;;;;;;;29.60;14.98;;;2.60;99.90;;;;;;5113896;28;20383;-76
2022/12/04 11:05:01;;;;;;;33.50;15.48;;;2.70;99.90;;;;;;5114061;28;20044;-75
2022/12/04 11:07:30;;;;;;;37.13;17.05;;;2.70;99.90;;;;;;5114133;28;20047;-76
2022/12/04 11:09:58;;;;;;;31.40;14.48;;;2.70;99.90;;;;;;5114029;28;20069;-76
2022/12/04 11:12:24;;;;;;;31.83;15.00;;;2.70;99.90;;;;;;5113654;28;20122;-76
2022/12/04 11:15:08;;;;;;;33.97;14.82;;;2.70;99.90;;;;;;5113746;28;20096;-75
2022/12/04 11:17:34;;;;;;;33.65;14.60;;;2.70;99.90;;;;;;5115214;28;20047;-75
2022/12/04 11:20:03;;;;;;;27.75;12.73;;;2.80;99.90;;;;;;5114954;28;20047;-75
2022/12/04 11:22:30;;;;;;;31.40;13.60;;;2.80;99.90;;;;;;5113529;28;20529;-75
2022/12/04 11:24:57;;;;;;;28.58;12.93;;;2.80;99.90;;;;;;5113511;28;20052;-75
2022/12/04 11:27:33;;;;;;;28.90;13.02;;;2.80;99.90;;;;;;5113471;28;20043;-76
2022/12/04 11:30:08;;;;;;;30.52;15.70;;;2.80;99.90;;;;;;5113671;28;20043;-76
2022/12/04 11:32:34;;;;;;;26.17;11.82;;;2.80;99.90;;;;;;5113784;28;20055;-75
2022/12/04 11:35:11;;;;;;;27.85;13.75;;;2.80;99.90;;;;;;5114560;28;20048;-75
2022/12/04 11:37:36;;;;;;;28.70;13.48;;;2.80;99.90;;;;;;5113310;28;20043;-75
2022/12/04 11:40:07;;;;;;;28.00;11.25;;;2.80;99.90;;;;;;5113249;28;20109;-75
2022/12/04 11:42:32;;;;;;;23.10;10.80;;;2.90;99.90;;;;;;5112279;28;20051;-76
2022/12/04 11:45:17;;;;;;;23.58;11.52;;;2.90;99.90;;;;;;5112962;28;20046;-76
2022/12/04 11:47:56;;;;;;;25.20;13.55;;;2.80;99.90;;;;;;5110574;28;20043;-75
2022/12/04 11:50:48;;;;;;;23.70;11.27;;;2.80;99.90;;;;;;5111274;28;20486;-75
2022/12/04 11:53:34;;;;;;;22.52;10.90;;;2.90;99.90;;;;;;5111271;28;20059;-75
2022/12/04 11:56:16;;;;;;;22.77;10.70;;;2.80;99.90;;;;;;5092012;28;20406;-75
2022/12/04 11:59:03;;;;;;;24.27;11.85;;;2.90;99.90;;;;;;5092400;28;20120;-79
2022/12/04 12:01:44;;;;;;;23.17;12.13;;;2.80;99.90;;;;;;5111772;28;20474;-75
2022/12/04 12:04:12;;;;;;;24.88;11.88;;;2.80;99.90;;;;;;5110861;28;20070;-75
2022/12/04 12:07:01;;;;;;;24.08;11.68;;;2.80;99.90;;;;;;5113774;28;20035;-75
2022/12/04 12:09:43;;;;;;;21.13;9.48;;;2.90;99.90;;;;;;5109759;28;20059;-75
2022/12/04 12:12:18;;;;;;;22.25;10.25;;;2.90;99.90;;;;;;5110517;28;20123;-75
2022/12/04 12:15:07;;;;;;;21.60;9.90;;;2.90;99.90;;;;;;5111097;28;20039;-75
2022/12/04 12:17:40;;;;;;;18.48;9.25;;;2.90;99.90;;;;;;5099748;28;20052;-76
2022/12/04 12:20:24;;;;;;;20.50;9.35;;;2.90;99.90;;;;;;5110851;28;20490;-75
2022/12/04 12:23:04;;;;;;;19.70;9.23;;;2.90;99.90;;;;;;5135963;27;20067;-76
2022/12/04 12:25:36;;;;;;;21.10;10.88;;;3.00;99.90;;;;;;5110293;28;20551;-76
2022/12/04 12:28:16;;;;;;;18.65;8.90;;;2.90;99.90;;;;;;5113371;28;20060;-76
2022/12/04 12:31:14;;;;;;;22.02;10.27;;;3.00;99.90;;;;;;5111982;28;20110;-76
2022/12/04 12:33:56;;;;;;;18.23;9.48;;;3.00;99.90;;;;;;5069498;28;20051;-75
2022/12/04 12:36:25;;;;;;;21.55;8.88;;;3.00;99.90;;;;;;5112178;28;20032;-75
2022/12/04 12:39:14;;;;;;;21.30;9.70;;;3.00;99.90;;;;;;5111935;28;20078;-75
2022/12/04 12:41:52;;;;;;;20.98;10.05;;;2.90;99.90;;;;;;5111430;28;20048;-75
2022/12/04 12:44:25;;;;;;;22.52;9.48;;;3.00;99.90;;;;;;5111606;28;20040;-76
2022/12/04 12:46:59;;;;;;;23.75;10.80;;;2.90;99.90;;;;;;5113182;28;20080;-75
2022/12/04 12:49:35;;;;;;;24.83;11.98;;;3.00;99.90;;;;;;5111789;28;20101;-76
2022/12/04 12:52:16;;;;;;;25.33;12.00;;;3.00;99.90;;;;;;5111565;28;20146;-76
2022/12/04 12:54:44;;;;;;;25.48;12.48;;;3.00;99.90;;;;;;5116146;28;20043;-76
2022/12/04 12:57:24;;;;;;;27.88;12.02;;;3.00;99.90;;;;;;5116398;28;20047;-76
2022/12/04 13:00:21;;;;;;;29.73;12.70;;;3.00;99.90;;;;;;5116506;28;20116;-77
2022/12/04 13:03:03;;;;;;;25.95;11.57;;;3.00;99.90;;;;;;5115630;28;20104;-76
2022/12/04 13:05:42;;;;;;;26.63;12.18;;;3.00;99.90;;;;;;5117376;28;20429;-76
2022/12/04 13:08:16;;;;;;;27.45;12.52;;;3.00;99.90;;;;;;5117518;28;20039;-75
2022/12/04 13:10:48;;;;;;;33.10;13.35;;;3.10;99.90;;;;;;5117352;28;20402;-75
2022/12/04 13:13:22;;;;;;;27.50;13.30;;;3.10;99.90;;;;;;5117746;28;20100;-75